createdAt,value
2022-12-05T00:00:20.132Z,12.88
2022-12-05T00:04:22.538Z,8.77
2022-12-05T00:08:24.950Z,12.00
2022-12-05T00:12:27.319Z,11.15
2022-12-05T00:16:31.900Z,10.23
2022-12-05T00:20:34.503Z,11.68
2022-12-05T00:24:36.817Z,11.00
2022-12-05T00:28:42.295Z,11.70
2022-12-05T00:32:51.414Z,10.15
2022-12-05T00:36:58.516Z,10.68
2022-12-05T00:41:09.981Z,11.77
2022-12-05T00:45:13.265Z,10.73
2022-12-05T00:49:15.895Z,11.23
2022-12-05T00:53:21.091Z,10.63
2022-12-05T00:57:30.410Z,10.90
2022-12-05T01:01:41.748Z,9.05
2022-12-05T01:05:44.568Z,11.57
2022-12-05T01:09:47.418Z,9.40
2022-12-05T01:13:50.101Z,8.52
2022-12-05T01:17:52.110Z,7.80
2022-12-05T01:21:55.171Z,8.20
2022-12-05T01:25:57.444Z,8.75
2022-12-05T01:30:00.347Z,8.63
2022-12-05T01:34:05.268Z,9.15
2022-12-05T01:38:08.542Z,7.38
2022-12-05T01:42:12.137Z,5.95
2022-12-05T01:46:14.684Z,8.13
2022-12-05T01:50:17.214Z,7.32
2022-12-05T01:54:22.751Z,7.88
2022-12-05T01:58:31.354Z,6.82
2022-12-05T02:02:33.712Z,3.47
2022-12-05T02:06:36.313Z,8.63
2022-12-05T02:10:42.505Z,8.23
2022-12-05T02:14:56.612Z,8.18
2022-12-05T02:24:46.321Z,5.93
2022-12-05T02:29:01.466Z,4.32
2022-12-05T02:33:12.826Z,4.70
2022-12-05T02:37:23.168Z,4.93
2022-12-05T02:41:40.570Z,5.22
2022-12-05T02:46:04.460Z,4.70
2022-12-05T02:50:12.471Z,5.80
2022-12-05T02:54:19.805Z,5.97
2022-12-05T02:58:32.194Z,4.03
2022-12-05T03:02:35.518Z,3.70
2022-12-05T03:07:06.503Z,3.78
2022-12-05T03:11:09.296Z,4.10
2022-12-05T03:15:24.720Z,4.88
2022-12-05T03:19:54.868Z,3.60
2022-12-05T03:24:14.885Z,3.42
2022-12-05T03:28:54.520Z,3.78
2022-12-05T03:33:09.836Z,3.88
2022-12-05T03:37:22.483Z,4.18
2022-12-05T03:42:06.557Z,3.25
2022-12-05T03:46:23.559Z,3.95
2022-12-05T03:50:28.710Z,3.65
2022-12-05T04:03:52.150Z,3.53
2022-12-05T04:08:03.350Z,3.80
2022-12-05T04:12:12.460Z,3.08
2022-12-05T04:16:39.196Z,3.20
2022-12-05T04:21:01.515Z,3.90
2022-12-05T04:25:28.832Z,3.97
2022-12-05T04:29:36.721Z,3.45
2022-12-05T04:34:00.737Z,3.25
2022-12-05T04:38:10.846Z,3.35
2022-12-05T04:42:21.323Z,2.88
2022-12-05T04:46:24.686Z,2.95
2022-12-05T04:50:31.863Z,2.83
2022-12-05T04:54:48.964Z,3.35
2022-12-05T04:58:51.262Z,2.97
2022-12-05T05:03:04.900Z,3.50
2022-12-05T05:07:09.710Z,3.25
2022-12-05T05:11:24.438Z,3.20
2022-12-05T05:19:28.739Z,3.20
2022-12-05T05:23:31.097Z,2.88
2022-12-05T05:27:33.382Z,3.35
2022-12-05T05:31:39.488Z,3.17
2022-12-05T05:35:52.588Z,3.40
2022-12-05T05:39:54.993Z,2.67
2022-12-05T05:43:57.572Z,3.70
2022-12-05T05:48:02.770Z,2.90
2022-12-05T05:52:05.209Z,3.88
2022-12-05T05:56:21.781Z,7.07
2022-12-05T06:00:24.469Z,3.35
2022-12-05T06:04:26.867Z,3.33
2022-12-05T06:08:33.548Z,3.60
2022-12-05T06:12:35.782Z,4.50
2022-12-05T06:16:38.024Z,3.65
2022-12-05T06:20:40.482Z,3.40
2022-12-05T06:24:43.113Z,3.55
2022-12-05T06:28:45.701Z,3.92
2022-12-05T06:32:47.758Z,3.65
2022-12-05T06:36:49.810Z,4.00
2022-12-05T06:40:51.872Z,4.07
2022-12-05T06:44:56.867Z,3.92
2022-12-05T06:48:59.613Z,4.05
2022-12-05T06:53:01.893Z,3.97
2022-12-05T06:57:04.083Z,6.43
2022-12-05T07:01:24.879Z,4.78
2022-12-05T07:05:27.067Z,4.43
2022-12-05T07:09:48.576Z,9.52
2022-12-05T07:13:50.736Z,5.28
2022-12-05T07:17:52.819Z,5.72
2022-12-05T07:21:54.849Z,5.35
2022-12-05T07:25:57.930Z,5.65
2022-12-05T07:30:00.216Z,8.88
2022-12-05T07:34:03.191Z,6.82
2022-12-05T07:38:05.378Z,6.25
2022-12-05T07:42:07.694Z,6.90
2022-12-05T07:46:14.362Z,7.13
2022-12-05T07:50:16.750Z,6.25
2022-12-05T07:54:19.130Z,8.48
2022-12-05T07:58:21.388Z,8.68
2022-12-05T08:02:23.888Z,9.52
2022-12-05T08:06:31.268Z,6.30
2022-12-05T08:11:09.598Z,6.38
2022-12-05T08:15:11.859Z,5.70
2022-12-05T08:19:17.092Z,5.55
2022-12-05T08:23:19.761Z,5.45
2022-12-05T08:27:21.993Z,4.75
2022-12-05T08:31:25.650Z,4.88
2022-12-05T08:35:28.331Z,4.35
2022-12-05T08:39:33.916Z,3.55
2022-12-05T08:43:40.863Z,5.22
2022-12-05T08:47:42.953Z,4.70
2022-12-05T08:51:45.246Z,4.03
2022-12-05T08:55:47.772Z,3.88
2022-12-05T08:59:49.873Z,3.55
2022-12-05T09:03:51.935Z,5.30
2022-12-05T09:07:54.629Z,3.97
2022-12-05T09:11:57.931Z,5.10
2022-12-05T09:16:00.132Z,4.07
2022-12-05T09:20:02.445Z,4.45
2022-12-05T09:24:04.589Z,4.70
2022-12-05T09:28:06.674Z,5.70
2022-12-05T09:32:09.338Z,8.75
2022-12-05T09:36:15.855Z,6.32
2022-12-05T09:40:19.076Z,7.45
2022-12-05T09:44:37.367Z,5.15
2022-12-05T09:48:41.063Z,4.85
2022-12-05T09:53:02.670Z,5.00
2022-12-05T09:57:05.811Z,4.70
2022-12-05T10:01:46.091Z,5.68
2022-12-05T10:06:13.232Z,5.55
2022-12-05T10:10:39.012Z,4.40
2022-12-05T10:14:57.816Z,3.70
2022-12-05T10:19:05.078Z,5.15
2022-12-05T10:23:34.281Z,5.45
2022-12-05T10:27:41.002Z,4.45
2022-12-05T10:31:45.401Z,4.00
2022-12-05T10:39:53.582Z,5.57
2022-12-05T10:43:58.664Z,6.50
2022-12-05T10:48:00.989Z,7.30
2022-12-05T10:52:04.244Z,6.82
2022-12-05T10:56:41.932Z,6.40
2022-12-05T11:00:48.389Z,6.40
2022-12-05T11:04:51.998Z,4.75
2022-12-05T11:09:14.402Z,5.10
2022-12-05T11:13:24.028Z,5.03
2022-12-05T11:17:38.816Z,5.05
2022-12-05T11:25:46.928Z,5.05
2022-12-05T11:30:01.708Z,5.05
2022-12-05T11:34:20.201Z,4.78
2022-12-05T11:38:27.796Z,4.65
2022-12-05T12:20:00.085Z,2.65
2022-12-05T12:35:17.399Z,1.95
2022-12-05T12:39:43.221Z,1.60
2022-12-05T12:43:53.703Z,3.28
2022-12-05T12:48:33.014Z,2.67
2022-12-05T12:53:01.365Z,2.95
2022-12-05T12:57:24.019Z,3.15
2022-12-05T13:01:48.119Z,2.45
2022-12-05T13:06:25.043Z,2.20
2022-12-05T13:10:40.758Z,1.92
2022-12-05T13:14:53.993Z,3.08
2022-12-05T13:18:57.673Z,2.88
2022-12-05T13:23:07.840Z,5.67
2022-12-05T13:27:17.261Z,5.95
2022-12-05T13:31:34.063Z,8.27
2022-12-05T13:35:57.723Z,2.97
2022-12-05T13:40:18.379Z,5.60
2022-12-05T13:44:30.333Z,13.05
2022-12-05T13:49:08.844Z,7.45
2022-12-05T13:53:23.913Z,5.07
2022-12-05T13:57:53.853Z,3.88
2022-12-05T14:01:56.518Z,5.20
2022-12-05T14:05:58.902Z,5.25
2022-12-05T14:10:01.243Z,3.65
2022-12-05T14:14:04.859Z,7.35
2022-12-05T14:18:15.352Z,16.95
2022-12-05T14:22:23.769Z,3.50
2022-12-05T14:26:57.789Z,4.10
2022-12-05T14:30:59.911Z,4.90
2022-12-05T14:35:24.811Z,3.78
2022-12-05T14:43:34.552Z,9.77
2022-12-05T14:47:36.709Z,8.93
2022-12-05T14:51:38.822Z,5.35
2022-12-05T14:55:51.383Z,5.60
2022-12-05T14:59:59.926Z,4.82
2022-12-05T15:04:40.172Z,4.22
2022-12-05T15:08:55.011Z,4.18
2022-12-05T15:13:08.055Z,4.13
2022-12-05T15:17:17.282Z,4.47
2022-12-05T15:21:29.285Z,6.07
2022-12-05T15:25:32.633Z,5.05
2022-12-05T15:29:35.396Z,4.50
2022-12-05T15:33:51.713Z,5.10
2022-12-05T15:37:59.834Z,6.47
2022-12-05T15:42:02.478Z,5.90
2022-12-05T15:46:26.186Z,7.70
2022-12-05T15:50:45.086Z,7.80
2022-12-05T15:54:48.048Z,7.57
2022-12-05T15:58:59.907Z,9.68
2022-12-05T16:03:17.748Z,28.15
2022-12-05T16:07:21.714Z,8.43
2022-12-05T16:11:24.018Z,8.73
2022-12-05T16:15:28.996Z,9.05
2022-12-05T16:19:31.371Z,8.52
2022-12-05T16:23:33.941Z,7.18
2022-12-05T16:27:36.948Z,7.82
2022-12-05T16:31:40.337Z,7.68
2022-12-05T16:35:47.223Z,7.17
2022-12-05T16:39:49.526Z,5.93
2022-12-05T16:43:53.055Z,6.43
2022-12-05T16:47:58.982Z,7.87
2022-12-05T16:52:08.463Z,9.68
2022-12-05T16:56:16.226Z,12.45
2022-12-05T17:00:18.780Z,8.60
2022-12-05T17:04:21.094Z,9.45
2022-12-05T17:08:24.787Z,5.53
2022-12-05T17:12:26.900Z,5.47
2022-12-05T17:16:29.268Z,7.13
2022-12-05T17:20:31.707Z,9.52
2022-12-05T17:24:36.462Z,10.23
2022-12-05T17:28:39.146Z,15.05
2022-12-05T17:32:41.332Z,27.52
2022-12-05T17:36:45.545Z,12.98
2022-12-05T17:40:48.110Z,12.30
2022-12-05T17:44:50.276Z,10.32
2022-12-05T17:48:52.660Z,12.57
2022-12-05T17:52:56.174Z,14.70
2022-12-05T17:56:58.353Z,19.23
2022-12-05T18:01:00.971Z,29.30
2022-12-05T18:05:04.372Z,19.92
2022-12-05T18:09:06.603Z,13.25
2022-12-05T18:13:09.532Z,15.10
2022-12-05T18:17:11.633Z,14.93
2022-12-05T18:21:14.036Z,11.55
2022-12-05T18:25:16.564Z,11.27
2022-12-05T18:29:18.811Z,10.65
2022-12-05T18:33:20.830Z,10.23
2022-12-05T18:37:23.126Z,12.00
2022-12-05T18:41:28.846Z,12.00
2022-12-05T18:45:31.254Z,12.18
2022-12-05T18:49:33.420Z,16.25
2022-12-05T18:53:35.589Z,18.13
2022-12-05T18:57:38.048Z,14.43
2022-12-05T19:01:42.084Z,13.00
2022-12-05T19:05:44.288Z,12.23
2022-12-05T19:09:46.506Z,11.80
2022-12-05T19:13:48.987Z,10.52
2022-12-05T19:17:51.274Z,10.45
2022-12-05T19:21:53.753Z,9.05
2022-12-05T19:26:00.074Z,9.85
2022-12-05T19:30:07.951Z,8.48
2022-12-05T19:34:12.240Z,7.97
2022-12-05T19:38:14.508Z,9.38
2022-12-05T19:42:18.261Z,11.15
2022-12-05T19:46:25.036Z,12.20
2022-12-05T19:50:28.634Z,16.90
2022-12-05T19:54:31.537Z,13.60
2022-12-05T19:58:35.502Z,16.38
2022-12-05T20:02:40.309Z,11.73
2022-12-05T20:06:45.390Z,13.52
2022-12-05T20:10:47.568Z,10.77
2022-12-05T20:14:49.965Z,9.35
2022-12-05T20:18:54.183Z,10.63
2022-12-05T20:22:56.804Z,11.52
2022-12-05T20:26:59.717Z,10.70
2022-12-05T20:31:07.190Z,16.65
2022-12-05T20:35:09.279Z,10.07
2022-12-05T20:39:15.496Z,15.77
2022-12-05T20:43:17.563Z,13.40
2022-12-05T20:47:23.054Z,14.88
2022-12-05T20:51:28.466Z,15.95
2022-12-05T20:55:31.357Z,15.18
2022-12-05T20:59:34.177Z,17.10
2022-12-05T21:03:36.933Z,15.90
2022-12-05T21:07:39.285Z,11.90
2022-12-05T21:11:42.958Z,13.15
2022-12-05T21:15:45.638Z,15.67
2022-12-05T21:19:47.798Z,12.00
2022-12-05T21:23:58.699Z,11.93
2022-12-05T21:28:00.937Z,11.00
2022-12-05T21:32:03.661Z,10.68
2022-12-05T21:36:07.156Z,7.72
2022-12-05T21:40:10.151Z,7.13
2022-12-05T21:44:12.277Z,11.70
2022-12-05T21:48:14.329Z,11.07
2022-12-05T21:52:16.495Z,9.40
2022-12-05T21:56:23.016Z,10.43
2022-12-05T22:00:26.424Z,8.85
2022-12-05T22:04:28.697Z,8.70
2022-12-05T22:08:32.054Z,8.80
2022-12-05T22:12:34.881Z,8.20
2022-12-05T22:16:37.006Z,8.70
2022-12-05T22:20:43.801Z,8.25
2022-12-05T22:24:49.148Z,6.90
2022-12-05T22:28:52.857Z,6.72
2022-12-05T22:32:55.152Z,6.50
2022-12-05T22:36:57.318Z,6.63
2022-12-05T22:41:01.894Z,6.32
2022-12-05T22:45:04.385Z,4.80
2022-12-05T22:49:07.121Z,3.78
2022-12-05T22:53:09.214Z,4.28
2022-12-05T22:57:11.328Z,5.47
2022-12-05T23:01:19.484Z,8.02
2022-12-05T23:05:22.469Z,6.03
2022-12-05T23:09:24.876Z,5.80
2022-12-05T23:13:28.052Z,6.30
2022-12-05T23:17:30.473Z,7.03
2022-12-05T23:21:36.996Z,6.38
2022-12-05T23:25:39.770Z,7.90
2022-12-05T23:29:42.863Z,7.90
2022-12-05T23:33:45.045Z,8.40
2022-12-05T23:37:48.912Z,7.80
2022-12-05T23:41:51.919Z,7.78
2022-12-05T23:45:54.224Z,7.35
2022-12-05T23:49:56.535Z,7.78
2022-12-05T23:54:01.692Z,7.07
2022-12-05T23:58:04.189Z,6.93
